Terminal Aerodrome Forecast
Issued by NWS Quad Cities IA IL

Home | Current Version | Previous Version | Text Only | Print | Product List | Glossary Off
Versions: 1 2 3 4 5 6 7 8 9 10 11 12 13 14 15 16 17 18 19 20

000
FTUS43 KDVN 181300 AAA
TAFDBQ
TAF AMD
KDBQ 181350Z 1814/1912 16004KT 1/4SM FG VV001
      TEMPO 1814/1815 1SM BR OVC002
     FM181500 18006KT 3SM BR FEW005
     FM181700 20008KT P6SM SCT035
      TEMPO 1900/1904 3SM -TSRA BR BKN025CB
     FM190400 24005KT 6SM BR SCT150=

USA.gov is the U.S. government's official web portal to all federal, state and local government web resources and services.